createdAt,value
2023-04-08T00:02:10.069Z,7.84
2023-04-08T00:04:40.133Z,7.83
2023-04-08T00:07:08.038Z,7.82
2023-04-08T00:09:35.935Z,7.82
2023-04-08T00:12:03.870Z,7.84
2023-04-08T00:14:32.001Z,7.81
2023-04-08T00:17:01.458Z,7.73
2023-04-08T00:19:29.303Z,7.73
2023-04-08T00:21:57.168Z,7.66
2023-04-08T00:24:25.068Z,7.74
2023-04-08T00:26:52.937Z,7.69
2023-04-08T00:29:21.456Z,7.65
2023-04-08T00:31:49.537Z,7.62
2023-04-08T00:34:18.692Z,7.58
2023-04-08T00:36:47.149Z,7.54
2023-04-08T00:39:15.074Z,7.56
2023-04-08T00:41:43.165Z,7.54
2023-04-08T00:44:11.209Z,7.57
2023-04-08T00:46:40.684Z,7.50
2023-04-08T00:49:08.739Z,7.48
2023-04-08T00:51:37.894Z,7.44
2023-04-08T00:54:05.781Z,7.43
2023-04-08T00:56:34.925Z,7.40
2023-04-08T00:59:03.252Z,7.39
2023-04-08T01:01:35.736Z,7.39
2023-04-08T01:04:09.210Z,7.38
2023-04-08T01:06:42.556Z,7.36
2023-04-08T01:09:11.233Z,7.32
2023-04-08T01:11:42.252Z,7.28
2023-04-08T01:14:10.813Z,7.23
2023-04-08T01:16:42.230Z,7.19
2023-04-08T01:19:11.654Z,7.16
2023-04-08T01:21:41.156Z,7.12
2023-04-08T01:24:14.225Z,7.07
2023-04-08T01:26:43.830Z,7.05
2023-04-08T01:29:12.308Z,7.05
2023-04-08T01:31:40.643Z,7.07
2023-04-08T01:34:08.703Z,7.03
2023-04-08T01:36:38.308Z,7.01
2023-04-08T01:39:07.860Z,7.02
2023-04-08T01:41:37.285Z,7.02
2023-04-08T01:44:06.868Z,7.03
2023-04-08T01:46:35.556Z,7.04
2023-04-08T01:49:03.816Z,7.01
2023-04-08T01:51:32.923Z,7.00
2023-04-08T01:54:00.946Z,6.97
2023-04-08T01:56:30.143Z,6.92
2023-04-08T01:58:59.792Z,6.90
2023-04-08T02:01:30.916Z,6.86
2023-04-08T02:03:59.744Z,6.82
2023-04-08T02:06:29.358Z,6.79
2023-04-08T02:08:57.257Z,6.76
2023-04-08T02:11:25.111Z,6.71
2023-04-08T02:13:53.837Z,6.70
2023-04-08T02:16:24.593Z,6.64
2023-04-08T02:18:57.708Z,6.62
2023-04-08T02:21:28.936Z,6.58
2023-04-08T02:23:58.367Z,6.54
2023-04-08T02:26:27.042Z,6.50
2023-04-08T02:28:58.097Z,6.48
2023-04-08T02:31:27.385Z,6.43
2023-04-08T02:33:57.121Z,6.40
2023-04-08T02:36:26.760Z,6.38
2023-04-08T02:38:54.732Z,6.34
2023-04-08T02:41:22.560Z,6.33
2023-04-08T02:43:55.521Z,6.31
2023-04-08T02:46:23.473Z,6.29
2023-04-08T02:48:52.673Z,6.26
2023-04-08T02:51:21.865Z,6.22
2023-04-08T02:53:49.781Z,6.19
2023-04-08T02:56:18.311Z,6.16
2023-04-08T02:58:46.170Z,6.14
2023-04-08T03:01:14.084Z,6.09
2023-04-08T03:03:42.176Z,6.05
2023-04-08T03:06:10.110Z,6.02
2023-04-08T03:08:39.296Z,5.97
2023-04-08T03:11:07.168Z,5.94
2023-04-08T03:13:35.770Z,5.90
2023-04-08T03:16:03.634Z,5.87
2023-04-08T03:18:31.514Z,5.84
2023-04-08T03:20:59.534Z,5.80
2023-04-08T03:23:27.380Z,5.77
2023-04-08T03:25:56.573Z,5.78
2023-04-08T03:28:24.374Z,5.73
2023-04-08T03:30:52.181Z,5.72
2023-04-08T03:33:20.041Z,5.68
2023-04-08T03:35:47.824Z,5.62
2023-04-08T03:38:15.757Z,5.61
2023-04-08T03:40:43.536Z,5.59
2023-04-08T03:43:13.045Z,5.55
2023-04-08T03:45:40.949Z,5.53
2023-04-08T03:48:08.876Z,5.49
2023-04-08T03:50:36.759Z,5.45
2023-04-08T03:53:04.666Z,5.42
2023-04-08T03:55:32.542Z,5.36
2023-04-08T03:58:00.346Z,5.34
2023-04-08T04:00:29.685Z,5.34
2023-04-08T04:02:57.617Z,5.36
2023-04-08T04:05:25.586Z,5.29
2023-04-08T04:07:53.386Z,5.25
2023-04-08T04:10:21.214Z,5.21
2023-04-08T04:12:50.826Z,5.17
2023-04-08T04:15:18.654Z,5.14
2023-04-08T04:17:48.724Z,5.12
2023-04-08T04:20:16.671Z,5.07
2023-04-08T04:22:44.638Z,5.03
2023-04-08T04:25:12.547Z,5.02
2023-04-08T04:27:40.377Z,4.99
2023-04-08T04:30:10.499Z,4.98
2023-04-08T04:32:38.414Z,4.99
2023-04-08T04:35:07.979Z,4.95
2023-04-08T04:37:36.515Z,4.88
2023-04-08T04:40:04.924Z,4.88
2023-04-08T04:42:33.092Z,4.83
2023-04-08T04:45:00.979Z,4.80
2023-04-08T04:47:28.864Z,4.80
2023-04-08T04:49:56.695Z,4.77
2023-04-08T04:52:25.994Z,4.73
2023-04-08T04:54:53.883Z,4.71
2023-04-08T04:57:21.726Z,4.70
2023-04-08T04:59:49.520Z,4.69
2023-04-08T05:02:17.505Z,4.67
2023-04-08T05:04:45.494Z,4.63
2023-04-08T05:07:13.359Z,4.61
2023-04-08T05:09:42.465Z,4.59
2023-04-08T05:12:10.246Z,4.60
2023-04-08T05:14:38.035Z,4.59
2023-04-08T05:17:06.595Z,4.55
2023-04-08T05:19:34.465Z,4.55
2023-04-08T05:22:02.259Z,4.54
2023-04-08T05:24:30.145Z,4.53
2023-04-08T05:26:59.382Z,4.50
2023-04-08T05:29:27.613Z,4.50
2023-04-08T05:31:56.458Z,4.49
2023-04-08T05:34:24.352Z,4.46
2023-04-08T05:36:52.871Z,4.48
2023-04-08T05:39:21.258Z,4.44
2023-04-08T05:41:49.086Z,4.44
2023-04-08T05:44:18.724Z,4.43
2023-04-08T05:46:47.052Z,4.44
2023-04-08T05:49:15.774Z,4.42
2023-04-08T05:51:43.667Z,4.43
2023-04-08T05:54:11.586Z,4.44
2023-04-08T05:56:39.425Z,4.46
2023-04-08T05:59:07.223Z,4.45
2023-04-08T06:01:36.617Z,4.48
2023-04-08T06:04:04.626Z,4.52
2023-04-08T06:06:32.690Z,4.56
2023-04-08T06:09:00.524Z,4.59
2023-04-08T06:11:28.601Z,4.65
2023-04-08T06:13:56.377Z,4.68
2023-04-08T06:16:24.284Z,4.70
2023-04-08T06:18:53.814Z,4.76
2023-04-08T06:21:21.803Z,4.81
2023-04-08T06:23:49.766Z,4.83
2023-04-08T06:26:18.152Z,4.88
2023-04-08T06:28:45.967Z,4.93
2023-04-08T06:31:13.849Z,4.97
2023-04-08T06:33:41.767Z,5.03
2023-04-08T06:36:13.231Z,5.08
2023-04-08T06:38:41.198Z,5.18
2023-04-08T06:42:11.389Z,5.23
2023-04-08T06:44:53.293Z,5.40
2023-04-08T06:47:21.185Z,5.50
2023-04-08T06:49:49.101Z,5.60
2023-04-08T06:52:18.336Z,5.69
2023-04-08T06:54:46.492Z,5.89
2023-04-08T06:57:14.264Z,6.09
2023-04-08T06:59:42.288Z,6.35
2023-04-08T07:02:10.188Z,6.54
2023-04-08T07:04:38.173Z,6.78
2023-04-08T07:07:06.151Z,6.99
2023-04-08T07:09:36.986Z,7.43
2023-04-08T07:12:05.019Z,7.88
2023-04-08T07:14:32.861Z,8.25
2023-04-08T07:17:00.859Z,8.67
2023-04-08T07:19:28.872Z,8.93
2023-04-08T07:21:57.903Z,9.37
2023-04-08T07:24:25.774Z,9.49
2023-04-08T07:26:56.810Z,9.56
2023-04-08T07:29:24.648Z,9.83
2023-04-08T07:31:52.832Z,9.72
2023-04-08T07:34:20.855Z,10.11
2023-04-08T07:36:48.703Z,10.41
2023-04-08T07:39:16.616Z,10.66
2023-04-08T07:41:45.452Z,10.60
2023-04-08T07:44:17.279Z,11.02
2023-04-08T07:46:49.417Z,11.32
2023-04-08T07:49:17.191Z,11.39
2023-04-08T07:51:44.960Z,11.68
2023-04-08T07:54:17.249Z,12.28
2023-04-08T07:56:45.553Z,12.41
2023-04-08T07:59:15.017Z,12.69
2023-04-08T08:01:42.961Z,12.58
2023-04-08T08:04:11.304Z,12.81
2023-04-08T08:06:39.387Z,12.89
2023-04-08T08:09:07.334Z,12.20
2023-04-08T08:11:35.160Z,12.44
2023-04-08T08:14:04.600Z,12.78
2023-04-08T08:16:33.969Z,13.25
2023-04-08T08:19:01.995Z,13.62
2023-04-08T08:21:29.818Z,14.09
2023-04-08T08:23:59.547Z,13.84
2023-04-08T08:26:27.364Z,14.50
2023-04-08T08:28:55.250Z,14.66
2023-04-08T08:31:23.120Z,14.75
2023-04-08T08:33:52.554Z,14.83
2023-04-08T08:36:20.652Z,15.32
2023-04-08T08:38:48.589Z,15.43
2023-04-08T08:41:16.439Z,15.06
2023-04-08T08:43:45.185Z,15.26
2023-04-08T08:46:13.062Z,15.43
2023-04-08T08:48:41.005Z,15.44
2023-04-08T08:51:11.277Z,15.36
2023-04-08T08:53:39.148Z,15.59
2023-04-08T08:58:40.469Z,15.76
2023-04-08T09:01:27.267Z,15.79
2023-04-08T09:04:07.670Z,15.63
2023-04-08T09:06:36.918Z,15.36
2023-04-08T09:09:06.122Z,15.35
2023-04-08T09:11:34.167Z,15.20
2023-04-08T09:14:02.057Z,15.31
2023-04-08T09:16:32.299Z,15.79
2023-04-08T09:19:09.403Z,16.28
2023-04-08T09:21:38.940Z,15.94
2023-04-08T09:24:06.925Z,16.48
2023-04-08T09:26:35.160Z,16.47
2023-04-08T09:29:14.178Z,16.40
2023-04-08T09:31:54.919Z,16.17
2023-04-08T09:34:23.480Z,16.28
2023-04-08T09:36:53.111Z,16.29
2023-04-08T09:39:21.255Z,15.56
2023-04-08T09:41:49.950Z,15.82
2023-04-08T09:44:17.751Z,15.60
2023-04-08T09:46:53.120Z,15.44
2023-04-08T09:49:27.044Z,15.28
2023-04-08T09:52:06.199Z,15.51
2023-04-08T09:54:39.055Z,15.28
2023-04-08T09:57:11.648Z,15.21
2023-04-08T09:59:40.134Z,15.03
2023-04-08T10:02:10.751Z,15.39
2023-04-08T10:04:40.332Z,15.15
2023-04-08T10:07:10.047Z,14.90
2023-04-08T10:09:41.529Z,14.84
2023-04-08T10:12:09.660Z,15.25
2023-04-08T10:14:37.487Z,15.27
2023-04-08T10:17:24.148Z,15.33
2023-04-08T10:19:52.027Z,15.54
2023-04-08T10:22:39.158Z,15.51
2023-04-08T10:25:25.571Z,15.28
2023-04-08T10:27:54.836Z,14.91
2023-04-08T10:30:37.650Z,14.93
2023-04-08T10:33:10.927Z,14.88
2023-04-08T10:35:42.203Z,15.05
2023-04-08T10:38:11.071Z,14.92
2023-04-08T10:40:41.486Z,15.15
2023-04-08T10:43:11.277Z,15.06
2023-04-08T10:45:39.319Z,15.03
2023-04-08T10:48:14.065Z,15.59
2023-04-08T10:50:42.550Z,15.62
2023-04-08T10:53:11.262Z,15.84
2023-04-08T10:55:39.145Z,15.79
2023-04-08T10:58:07.908Z,15.82
2023-04-08T11:00:38.937Z,15.78
2023-04-08T11:03:07.757Z,15.83
2023-04-08T11:05:36.873Z,15.86
2023-04-08T11:08:05.245Z,15.90
2023-04-08T11:10:38.496Z,15.99
2023-04-08T11:13:08.787Z,15.82
2023-04-08T11:15:38.253Z,15.70
2023-04-08T11:18:06.500Z,15.62
2023-04-08T11:20:37.103Z,15.67
2023-04-08T11:23:04.891Z,15.64
2023-04-08T11:25:32.842Z,15.44
2023-04-08T11:28:01.399Z,15.42
2023-04-08T11:30:31.091Z,15.63
2023-04-08T11:33:00.394Z,15.76
2023-04-08T11:35:29.865Z,15.51
2023-04-08T11:37:57.972Z,15.60
2023-04-08T11:40:26.358Z,15.65
2023-04-08T11:42:54.501Z,15.57
2023-04-08T11:45:23.159Z,15.25
2023-04-08T11:47:51.133Z,15.28
2023-04-08T11:50:27.011Z,15.39
2023-04-08T11:52:55.537Z,15.47
2023-04-08T11:55:25.133Z,15.64
2023-04-08T11:57:53.813Z,15.68
2023-04-08T12:00:22.197Z,15.55
2023-04-08T12:02:51.170Z,14.76
2023-04-08T12:05:19.357Z,14.86
2023-04-08T12:07:48.997Z,15.69
2023-04-08T12:10:17.193Z,16.18
2023-04-08T12:13:10.381Z,16.00
2023-04-08T12:15:38.478Z,16.59
2023-04-08T12:18:06.869Z,17.19
2023-04-08T12:20:34.710Z,17.23
2023-04-08T12:23:03.977Z,17.22
2023-04-08T12:25:32.416Z,16.86
2023-04-08T12:28:00.469Z,17.02
2023-04-08T12:30:28.342Z,17.60
2023-04-08T12:32:57.842Z,18.11
2023-04-08T12:35:25.950Z,18.46
2023-04-08T12:37:54.102Z,18.81
2023-04-08T12:40:23.427Z,18.96
2023-04-08T12:42:51.443Z,18.66
2023-04-08T12:45:19.353Z,19.25
2023-04-08T12:47:47.299Z,19.42
2023-04-08T12:50:15.928Z,19.53
2023-04-08T12:52:43.797Z,19.74
2023-04-08T12:55:11.966Z,19.55
2023-04-08T12:57:41.404Z,19.51
2023-04-08T13:00:11.258Z,18.39
2023-04-08T13:02:39.367Z,18.55
2023-04-08T13:05:07.358Z,18.07
2023-04-08T13:07:35.313Z,18.35
2023-04-08T13:10:03.627Z,18.48
2023-04-08T13:12:32.202Z,18.07
2023-04-08T13:15:01.618Z,17.44
2023-04-08T13:17:29.622Z,17.49
2023-04-08T13:19:57.488Z,17.34
2023-04-08T13:22:25.368Z,17.40
2023-04-08T13:24:53.391Z,17.01
2023-04-08T13:27:21.605Z,17.17
2023-04-08T13:29:49.455Z,17.21
2023-04-08T13:32:18.629Z,16.89
2023-04-08T13:34:46.722Z,16.90
2023-04-08T13:37:14.763Z,17.35
2023-04-08T13:39:42.565Z,17.57
2023-04-08T13:42:10.429Z,17.58
2023-04-08T13:44:38.309Z,17.61
2023-04-08T13:47:06.465Z,17.30
2023-04-08T13:49:35.830Z,17.34
2023-04-08T13:52:03.843Z,16.86
2023-04-08T13:54:32.021Z,16.88
2023-04-08T13:56:59.889Z,16.91
2023-04-08T13:59:28.009Z,17.18
2023-04-08T14:01:56.133Z,17.10
2023-04-08T14:04:24.322Z,17.36
2023-04-08T14:06:53.601Z,17.52
2023-04-08T14:09:21.880Z,17.58
2023-04-08T14:11:49.749Z,17.34
2023-04-08T14:14:17.655Z,17.80
2023-04-08T14:16:45.574Z,17.79
2023-04-08T14:19:13.819Z,18.05
2023-04-08T14:21:41.875Z,17.69
2023-04-08T14:24:11.457Z,17.41
2023-04-08T14:26:39.365Z,17.63
2023-04-08T14:29:07.761Z,17.54
2023-04-08T14:31:36.302Z,17.34
2023-04-08T14:34:05.076Z,16.81
2023-04-08T14:36:33.380Z,16.73
2023-04-08T14:39:01.382Z,16.81
2023-04-08T14:41:30.687Z,16.56
2023-04-08T14:43:58.586Z,16.67
2023-04-08T14:46:28.847Z,16.37
2023-04-08T14:48:57.395Z,16.98
2023-04-08T14:51:25.315Z,16.91
2023-04-08T14:53:53.344Z,17.09
2023-04-08T14:56:21.330Z,16.90
2023-04-08T14:58:50.979Z,17.43
2023-04-08T15:01:19.209Z,17.69
2023-04-08T15:03:47.595Z,17.81
2023-04-08T15:06:17.882Z,17.43
2023-04-08T15:09:39.027Z,17.70
2023-04-08T15:12:07.154Z,17.44
2023-04-08T15:15:18.081Z,17.24
2023-04-08T15:17:46.639Z,17.00
2023-04-08T15:20:14.708Z,17.06
2023-04-08T15:22:42.974Z,17.09
2023-04-08T15:25:11.407Z,16.42
2023-04-08T15:27:39.785Z,16.67
2023-04-08T15:30:10.678Z,16.55
2023-04-08T15:32:42.091Z,16.47
2023-04-08T15:35:11.344Z,16.35
2023-04-08T15:37:39.574Z,16.69
2023-04-08T15:40:09.266Z,16.36
2023-04-08T15:42:37.422Z,16.31
2023-04-08T15:45:06.278Z,16.03
2023-04-08T15:47:35.340Z,15.92
2023-04-08T15:50:05.448Z,15.93
2023-04-08T15:52:35.232Z,15.71
2023-04-08T15:55:03.812Z,15.60
2023-04-08T15:57:32.664Z,15.64
2023-04-08T16:00:01.134Z,15.47
2023-04-08T16:02:29.717Z,15.43
2023-04-08T16:04:58.208Z,15.47
2023-04-08T16:07:27.983Z,15.53
2023-04-08T16:09:56.160Z,15.39
2023-04-08T16:12:25.537Z,15.22
2023-04-08T16:14:53.607Z,15.32
2023-04-08T16:17:21.994Z,15.10
2023-04-08T16:19:51.632Z,15.17
2023-04-08T16:22:20.290Z,15.14
2023-04-08T16:24:49.995Z,15.07
2023-04-08T16:27:18.131Z,15.18
2023-04-08T16:29:46.759Z,15.51
2023-04-08T16:32:14.929Z,16.05
2023-04-08T16:34:43.355Z,16.29
2023-04-08T16:37:13.206Z,16.11
2023-04-08T16:39:43.076Z,16.42
2023-04-08T16:42:38.772Z,16.53
2023-04-08T16:45:07.774Z,16.32
2023-04-08T16:47:36.156Z,16.45
2023-04-08T16:50:05.434Z,16.25
2023-04-08T16:52:33.750Z,16.56
2023-04-08T16:55:02.080Z,16.83
2023-04-08T16:57:30.149Z,16.79
2023-04-08T16:59:59.638Z,16.92
2023-04-08T17:02:28.072Z,16.76
2023-04-08T17:04:56.711Z,16.69
2023-04-08T17:07:50.329Z,16.87
2023-04-08T17:10:18.848Z,16.75
2023-04-08T17:12:47.347Z,16.50
2023-04-08T17:15:17.075Z,16.27
2023-04-08T17:17:45.110Z,16.18
2023-04-08T17:20:14.450Z,16.00
2023-04-08T17:22:42.761Z,16.01
2023-04-08T17:25:12.297Z,15.69
2023-04-08T17:27:40.480Z,15.25
2023-04-08T17:30:11.537Z,15.26
2023-04-08T17:32:41.332Z,14.84
2023-04-08T17:35:10.109Z,14.76
2023-04-08T17:37:38.218Z,14.79
2023-04-08T17:40:07.777Z,14.68
2023-04-08T17:42:36.002Z,14.35
2023-04-08T17:45:04.784Z,14.19
2023-04-08T17:47:33.547Z,13.97
2023-04-08T17:50:03.313Z,13.87
2023-04-08T17:52:31.456Z,13.68
2023-04-08T17:54:59.726Z,13.56
2023-04-08T17:57:28.482Z,13.49
2023-04-08T17:59:56.589Z,13.30
2023-04-08T18:02:27.461Z,13.15
2023-04-08T18:04:55.791Z,13.11
2023-04-08T18:07:25.298Z,12.98
2023-04-08T18:09:53.994Z,12.98
2023-04-08T18:12:22.190Z,12.68
2023-04-08T18:14:50.546Z,12.61
2023-04-08T18:17:18.706Z,12.44
2023-04-08T18:19:46.874Z,12.45
2023-04-08T18:22:15.143Z,12.24
2023-04-08T18:24:44.609Z,12.30
2023-04-08T18:27:12.764Z,12.29
2023-04-08T18:29:41.225Z,12.12
2023-04-08T18:32:09.442Z,12.09
2023-04-08T18:38:44.844Z,11.85
2023-04-08T18:41:14.685Z,11.75
2023-04-08T18:43:43.161Z,11.73
2023-04-08T18:46:11.348Z,11.50
2023-04-08T18:48:39.576Z,11.62
2023-04-08T18:51:07.962Z,11.52
2023-04-08T18:53:36.147Z,11.49
2023-04-08T18:56:04.840Z,11.39
2023-04-08T18:58:34.437Z,11.36
2023-04-08T19:01:08.153Z,11.38
2023-04-08T19:03:36.292Z,11.30
2023-04-08T19:06:06.687Z,11.19
2023-04-08T19:08:35.045Z,11.15
2023-04-08T19:11:03.500Z,11.15
2023-04-08T19:13:32.026Z,11.09
2023-04-08T19:16:01.501Z,11.07
2023-04-08T19:18:29.615Z,11.03
2023-04-08T19:20:57.703Z,10.95
2023-04-08T19:23:25.767Z,10.91
2023-04-08T19:25:53.803Z,10.88
2023-04-08T19:28:21.919Z,10.82
2023-04-08T19:30:51.026Z,10.74
2023-04-08T19:33:21.097Z,10.75
2023-04-08T19:35:49.550Z,10.68
2023-04-08T19:38:17.790Z,10.69
2023-04-08T19:40:47.958Z,10.60
2023-04-08T19:43:16.262Z,10.57
2023-04-08T19:45:44.393Z,10.56
2023-04-08T19:48:12.387Z,10.50
2023-04-08T19:50:42.748Z,10.52
2023-04-08T19:53:10.961Z,10.48
2023-04-08T19:55:39.021Z,10.42
2023-04-08T19:58:07.018Z,10.38
2023-04-08T20:00:37.242Z,10.34
2023-04-08T20:03:06.097Z,10.32
2023-04-08T20:05:34.419Z,10.29
2023-04-08T20:08:03.834Z,10.29
2023-04-08T20:10:31.888Z,10.20
2023-04-08T20:12:59.863Z,10.16
2023-04-08T20:15:28.261Z,10.14
2023-04-08T20:17:56.968Z,10.13
2023-04-08T20:20:26.674Z,10.09
2023-04-08T20:22:56.127Z,10.03
2023-04-08T20:25:25.914Z,9.95
2023-04-08T20:27:53.935Z,9.92
2023-04-08T20:30:22.741Z,9.95
2023-04-08T20:32:51.000Z,9.91
2023-04-08T20:35:19.059Z,9.91
2023-04-08T20:37:47.545Z,9.89
2023-04-08T20:41:06.484Z,9.86
2023-04-08T20:43:36.037Z,9.85
2023-04-08T20:46:04.066Z,9.87
2023-04-08T20:48:33.211Z,9.80
2023-04-08T20:51:01.580Z,9.82
2023-04-08T20:53:31.522Z,9.80
2023-04-08T20:55:59.491Z,9.77
2023-04-08T20:58:27.402Z,9.72
2023-04-08T21:00:58.683Z,9.72
2023-04-08T21:03:26.898Z,9.68
2023-04-08T21:05:56.863Z,9.70
2023-04-08T21:08:24.846Z,9.64
2023-04-08T21:10:54.193Z,9.58
2023-04-08T21:13:22.209Z,9.57
2023-04-08T21:15:50.280Z,9.59
2023-04-08T21:18:19.616Z,9.55
2023-04-08T21:20:49.382Z,9.52
2023-04-08T21:23:17.364Z,9.52
2023-04-08T21:25:45.484Z,9.50
2023-04-08T21:28:13.627Z,9.39
2023-04-08T21:30:41.906Z,9.42
2023-04-08T21:33:10.034Z,9.41
2023-04-08T21:35:39.520Z,9.37
2023-04-08T21:42:39.418Z,9.33
2023-04-08T21:45:08.586Z,9.28
2023-04-08T21:47:36.670Z,9.29
2023-04-08T21:50:05.125Z,9.29
2023-04-08T21:52:34.580Z,9.19
2023-04-08T21:55:02.839Z,9.21
2023-04-08T21:57:30.984Z,9.18
2023-04-08T21:59:59.174Z,9.15
2023-04-08T22:02:27.366Z,9.15
2023-04-08T22:04:55.387Z,9.12
2023-04-08T22:07:23.380Z,9.14
2023-04-08T22:09:54.747Z,9.14
2023-04-08T22:12:22.982Z,9.11
2023-04-08T22:14:50.974Z,9.06
2023-04-08T22:17:19.099Z,9.02
2023-04-08T22:19:47.189Z,9.03
2023-04-08T22:22:15.549Z,9.02
2023-04-08T22:24:43.516Z,8.99
2023-04-08T22:27:12.894Z,8.96
2023-04-08T22:29:40.934Z,8.97
2023-04-08T22:32:09.053Z,8.94
2023-04-08T22:34:37.213Z,8.94
2023-04-08T22:37:05.300Z,8.87
2023-04-08T22:39:33.413Z,8.90
2023-04-08T22:42:01.423Z,8.85
2023-04-08T22:44:30.996Z,8.83
2023-04-08T22:46:59.185Z,8.83
2023-04-08T22:49:27.198Z,8.81
2023-04-08T22:51:55.178Z,8.78
2023-04-08T22:54:23.316Z,8.76
2023-04-08T22:56:51.363Z,8.72
2023-04-08T22:59:19.381Z,8.70
2023-04-08T23:01:48.874Z,8.71
2023-04-08T23:04:16.973Z,8.69
2023-04-08T23:06:45.037Z,8.67
2023-04-08T23:09:13.048Z,8.66
2023-04-08T23:11:41.147Z,8.67
2023-04-08T23:14:09.115Z,8.64
2023-04-08T23:16:37.291Z,8.63
2023-04-08T23:19:06.629Z,8.61
2023-04-08T23:21:34.723Z,8.63
2023-04-08T23:24:02.896Z,8.60
2023-04-08T23:26:30.923Z,8.60
2023-04-08T23:28:59.244Z,8.56
2023-04-08T23:31:27.419Z,8.54
2023-04-08T23:33:55.406Z,8.54
2023-04-08T23:36:24.827Z,8.55
2023-04-08T23:38:53.050Z,8.54
2023-04-08T23:41:21.404Z,8.51
2023-04-08T23:43:49.344Z,8.51
2023-04-08T23:46:17.499Z,8.50
2023-04-08T23:48:45.624Z,8.48
2023-04-08T23:51:13.756Z,8.50
2023-04-08T23:53:43.073Z,8.47
2023-04-08T23:56:11.265Z,8.47
2023-04-08T23:58:39.208Z,8.49
